createdAt,value
2023-02-07T00:01:44.397Z,100.00
2023-02-07T00:04:12.757Z,100.00
2023-02-07T00:06:41.067Z,100.00
2023-02-07T00:09:12.811Z,100.00
2023-02-07T00:11:41.641Z,100.00
2023-02-07T00:14:13.641Z,100.00
2023-02-07T00:16:47.462Z,100.00
2023-02-07T00:19:16.407Z,100.00
2023-02-07T00:21:44.762Z,100.00
2023-02-07T00:24:14.031Z,100.00
2023-02-07T00:26:43.220Z,100.00
2023-02-07T00:29:12.278Z,100.00
2023-02-07T00:31:42.464Z,100.00
2023-02-07T00:34:16.298Z,100.00
2023-02-07T00:36:45.059Z,100.00
2023-02-07T00:39:16.877Z,100.00
2023-02-07T00:41:46.714Z,100.00
2023-02-07T00:44:15.350Z,100.00
2023-02-07T00:46:44.973Z,100.00
2023-02-07T00:49:14.173Z,100.00
2023-02-07T00:51:43.146Z,100.00
2023-02-07T00:54:11.460Z,100.00
2023-02-07T00:56:40.539Z,100.00
2023-02-07T00:59:08.898Z,100.00
2023-02-07T01:01:38.292Z,100.00
2023-02-07T01:04:08.135Z,100.00
2023-02-07T01:06:37.197Z,100.00
2023-02-07T01:09:07.875Z,100.00
2023-02-07T01:11:36.201Z,100.00
2023-02-07T01:14:05.118Z,100.00
2023-02-07T01:16:41.398Z,100.00
2023-02-07T01:19:13.938Z,100.00
2023-02-07T01:21:42.268Z,100.00
2023-02-07T01:24:11.602Z,100.00
2023-02-07T01:26:41.344Z,100.00
2023-02-07T01:29:14.565Z,100.00
2023-02-07T01:31:43.558Z,100.00
2023-02-07T01:34:14.631Z,100.00
2023-02-07T01:36:43.000Z,100.00
2023-02-07T01:39:17.464Z,100.00
2023-02-07T01:41:46.156Z,100.00
2023-02-07T01:45:04.150Z,100.00
2023-02-07T01:47:34.994Z,100.00
2023-02-07T01:50:05.523Z,100.00
2023-02-07T01:52:39.549Z,100.00
2023-02-07T01:55:14.029Z,100.00
2023-02-07T01:57:44.132Z,100.00
2023-02-07T02:00:17.169Z,100.00
2023-02-07T02:02:46.173Z,100.00
2023-02-07T02:05:17.479Z,100.00
2023-02-07T02:07:45.897Z,100.00
2023-02-07T02:10:22.836Z,100.00
2023-02-07T02:13:18.095Z,100.00
2023-02-07T02:15:58.635Z,100.00
2023-02-07T02:18:58.548Z,100.00
2023-02-07T02:22:20.313Z,100.00
2023-02-07T02:25:37.927Z,100.00
2023-02-07T02:28:34.521Z,100.00
2023-02-07T02:31:41.050Z,100.00
2023-02-07T02:34:19.377Z,100.00
2023-02-07T02:37:01.168Z,100.00
2023-02-07T02:39:42.237Z,100.00
2023-02-07T02:42:19.413Z,100.00
2023-02-07T02:44:57.043Z,100.00
2023-02-07T02:47:31.870Z,100.00
2023-02-07T02:50:03.045Z,100.00
2023-02-07T02:52:49.559Z,100.00
2023-02-07T02:55:41.193Z,100.00
2023-02-07T02:58:23.148Z,100.00
2023-02-07T03:01:07.866Z,100.00
2023-02-07T03:04:02.442Z,100.00
2023-02-07T03:06:53.775Z,100.00
2023-02-07T03:09:37.778Z,100.00
2023-02-07T03:12:18.149Z,100.00
2023-02-07T03:15:02.294Z,100.00
2023-02-07T03:17:44.635Z,100.00
2023-02-07T03:20:22.146Z,100.00
2023-02-07T03:22:54.518Z,100.00
2023-02-07T03:25:25.527Z,100.00
2023-02-07T03:28:00.865Z,100.00
2023-02-07T03:33:20.978Z,100.00
2023-02-07T03:35:58.719Z,100.00
2023-02-07T03:38:28.640Z,100.00
2023-02-07T03:41:06.262Z,100.00
2023-02-07T03:43:37.955Z,100.00
2023-02-07T03:46:10.397Z,100.00
2023-02-07T03:48:39.018Z,100.00
2023-02-07T03:51:08.807Z,100.00
2023-02-07T03:53:39.262Z,100.00
2023-02-07T03:56:08.552Z,100.00
2023-02-07T03:58:40.272Z,100.00
2023-02-07T04:01:08.988Z,100.00
2023-02-07T04:03:38.092Z,100.00
2023-02-07T04:06:07.289Z,100.00
2023-02-07T04:08:36.633Z,100.00
2023-02-07T04:11:06.609Z,100.00
2023-02-07T04:13:37.070Z,100.00
2023-02-07T04:16:07.692Z,100.00
2023-02-07T04:18:36.029Z,100.00
2023-02-07T04:21:07.815Z,100.00
2023-02-07T04:23:36.834Z,100.00
2023-02-07T04:26:06.838Z,100.00
2023-02-07T04:28:35.315Z,100.00
2023-02-07T04:31:03.942Z,100.00
2023-02-07T04:33:32.629Z,100.00
2023-02-07T04:36:03.428Z,100.00
2023-02-07T04:38:31.952Z,100.00
2023-02-07T04:41:03.445Z,100.00
2023-02-07T04:43:35.269Z,100.00
2023-02-07T04:46:05.001Z,100.00
2023-02-07T04:48:34.281Z,100.00
2023-02-07T04:51:03.228Z,100.00
2023-02-07T04:53:31.598Z,100.00
2023-02-07T04:56:00.522Z,100.00
2023-02-07T04:58:28.961Z,100.00
2023-02-07T05:00:58.702Z,100.00
2023-02-07T05:03:27.275Z,100.00
2023-02-07T05:05:56.157Z,100.00
2023-02-07T05:08:26.312Z,100.00
2023-02-07T05:10:56.095Z,100.00
2023-02-07T05:13:25.930Z,100.00
2023-02-07T05:15:54.576Z,100.00
2023-02-07T05:18:25.481Z,100.00
2023-02-07T05:20:55.398Z,100.00
2023-02-07T05:23:23.914Z,100.00
2023-02-07T05:25:52.451Z,100.00
2023-02-07T05:28:21.044Z,100.00
2023-02-07T05:30:49.558Z,100.00
2023-02-07T05:33:17.282Z,100.00
2023-02-07T05:35:47.330Z,100.00
2023-02-07T05:38:18.640Z,100.00
2023-02-07T05:40:49.071Z,100.00
2023-02-07T05:43:17.378Z,100.00
2023-02-07T05:45:46.683Z,100.00
2023-02-07T05:48:15.458Z,100.00
2023-02-07T05:50:44.209Z,100.00
2023-02-07T05:53:14.082Z,100.00
2023-02-07T05:55:42.625Z,100.00
2023-02-07T05:58:10.973Z,100.00
2023-02-07T06:00:39.448Z,100.00
2023-02-07T06:03:07.708Z,100.00
2023-02-07T06:05:36.671Z,100.00
2023-02-07T06:08:05.657Z,100.00
2023-02-07T06:10:35.708Z,100.00
2023-02-07T06:13:04.078Z,100.00
2023-02-07T06:15:32.852Z,100.00
2023-02-07T06:18:01.403Z,100.00
2023-02-07T06:20:29.866Z,100.00
2023-02-07T06:22:58.156Z,100.00
2023-02-07T06:25:26.516Z,100.00
2023-02-07T06:27:56.714Z,100.00
2023-02-07T06:30:25.099Z,100.00
2023-02-07T06:32:53.813Z,100.00
2023-02-07T06:35:22.265Z,100.00
2023-02-07T06:37:50.591Z,100.00
2023-02-07T06:40:19.832Z,100.00
2023-02-07T06:42:48.349Z,100.00
2023-02-07T06:45:18.683Z,100.00
2023-02-07T06:47:47.383Z,100.00
2023-02-07T06:50:16.656Z,100.00
2023-02-07T06:52:45.306Z,100.00
2023-02-07T06:55:15.876Z,100.00
2023-02-07T06:57:44.424Z,100.00
2023-02-07T07:00:14.583Z,100.00
2023-02-07T07:02:44.309Z,100.00
2023-02-07T07:05:14.043Z,100.00
2023-02-07T07:07:43.321Z,100.00
2023-02-07T07:10:13.104Z,100.00
2023-02-07T07:12:46.181Z,100.00
2023-02-07T07:15:14.591Z,100.00
2023-02-07T07:17:44.343Z,100.00
2023-02-07T07:20:13.293Z,100.00
2023-02-07T07:22:42.333Z,100.00
2023-02-07T07:25:11.825Z,100.00
2023-02-07T07:27:40.997Z,100.00
2023-02-07T07:30:11.918Z,100.00
2023-02-07T07:32:40.766Z,100.00
2023-02-07T07:35:10.802Z,100.00
2023-02-07T07:37:41.832Z,100.00
2023-02-07T07:40:11.944Z,100.00
2023-02-07T07:42:40.324Z,100.00
2023-02-07T07:45:20.032Z,100.00
2023-02-07T07:47:48.725Z,100.00
2023-02-07T07:50:18.956Z,100.00
2023-02-07T07:52:47.304Z,100.00
2023-02-07T07:55:16.446Z,100.00
2023-02-07T07:57:45.192Z,100.00
2023-02-07T08:00:15.656Z,100.00
2023-02-07T08:02:46.566Z,100.00
2023-02-07T08:05:14.925Z,100.00
2023-02-07T08:07:44.671Z,100.00
2023-02-07T08:10:13.582Z,100.00
2023-02-07T08:12:43.921Z,100.00
2023-02-07T08:15:14.055Z,100.00
2023-02-07T08:17:42.580Z,100.00
2023-02-07T08:20:12.874Z,100.00
2023-02-07T08:22:41.723Z,100.00
2023-02-07T08:25:11.747Z,97.00
2023-02-07T08:27:40.434Z,94.87
2023-02-07T08:30:13.979Z,91.36
2023-02-07T08:32:42.544Z,92.80
2023-02-07T08:35:11.538Z,92.04
2023-02-07T08:37:40.162Z,88.74
2023-02-07T08:40:11.991Z,89.37
2023-02-07T08:42:40.602Z,88.17
2023-02-07T08:45:10.674Z,90.50
2023-02-07T08:47:39.723Z,86.08
2023-02-07T08:50:10.422Z,85.18
2023-02-07T08:52:39.635Z,85.81
2023-02-07T08:55:10.735Z,83.94
2023-02-07T08:57:40.269Z,83.44
2023-02-07T09:00:12.386Z,89.87
2023-02-07T09:02:42.543Z,85.03
2023-02-07T09:05:11.546Z,85.50
2023-02-07T09:07:40.267Z,84.60
2023-02-07T09:10:11.923Z,84.87
2023-02-07T09:12:40.740Z,83.42
2023-02-07T09:15:10.730Z,83.27
2023-02-07T09:17:39.075Z,82.88
2023-02-07T09:20:08.244Z,83.58
2023-02-07T09:22:57.208Z,84.58
2023-02-07T09:25:27.132Z,85.02
2023-02-07T09:27:56.006Z,85.56
2023-02-07T09:30:24.556Z,83.02
2023-02-07T09:32:52.891Z,84.43
2023-02-07T09:35:21.512Z,87.09
2023-02-07T09:37:50.359Z,82.49
2023-02-07T09:40:20.978Z,84.55
2023-02-07T09:42:59.966Z,82.30
2023-02-07T09:45:34.165Z,86.52
2023-02-07T09:48:13.165Z,93.60
2023-02-07T09:50:52.334Z,98.95
2023-02-07T09:53:27.525Z,100.00
2023-02-07T09:55:59.886Z,100.00
2023-02-07T09:58:41.291Z,100.00
2023-02-07T10:01:18.363Z,100.00
2023-02-07T10:04:02.630Z,99.57
2023-02-07T10:06:31.241Z,91.95
2023-02-07T10:09:02.419Z,88.94
2023-02-07T10:11:46.942Z,82.58
2023-02-07T10:14:38.658Z,79.09
2023-02-07T10:17:31.998Z,78.99
2023-02-07T10:20:25.796Z,79.78
2023-02-07T10:23:14.980Z,83.10
2023-02-07T10:26:00.241Z,79.19
2023-02-07T10:29:11.907Z,75.01
2023-02-07T10:31:49.774Z,77.81
2023-02-07T10:34:24.236Z,72.99
2023-02-07T10:37:00.425Z,75.59
2023-02-07T10:39:34.558Z,75.15
2023-02-07T10:42:03.233Z,78.93
2023-02-07T10:44:31.755Z,84.50
2023-02-07T10:47:07.156Z,94.88
2023-02-07T10:49:40.023Z,97.33
2023-02-07T10:52:28.715Z,98.94
2023-02-07T10:55:00.122Z,94.60
2023-02-07T10:57:31.198Z,99.12
2023-02-07T11:00:05.262Z,100.00
2023-02-07T11:02:50.270Z,100.00
2023-02-07T11:05:39.670Z,100.00
2023-02-07T11:08:24.668Z,100.00
2023-02-07T11:10:56.218Z,100.00
2023-02-07T11:13:32.703Z,100.00
2023-02-07T11:16:07.222Z,100.00
2023-02-07T11:18:45.867Z,100.00
2023-02-07T11:21:39.327Z,100.00
2023-02-07T11:24:15.658Z,97.63
2023-02-07T11:27:00.945Z,97.08
2023-02-07T11:29:31.812Z,96.93
2023-02-07T11:32:04.087Z,78.78
2023-02-07T11:34:49.236Z,73.29
2023-02-07T11:37:31.418Z,74.54
2023-02-07T11:40:27.945Z,71.08
2023-02-07T11:43:03.758Z,74.24
2023-02-07T11:45:35.554Z,68.90
2023-02-07T11:48:06.014Z,69.67
2023-02-07T11:50:40.279Z,65.67
2023-02-07T11:53:24.496Z,69.21
2023-02-07T11:55:57.242Z,68.25
2023-02-07T11:58:35.415Z,69.27
2023-02-07T12:01:07.035Z,73.23
2023-02-07T12:03:43.487Z,69.25
2023-02-07T12:06:20.464Z,77.26
2023-02-07T12:08:52.412Z,85.99
2023-02-07T12:11:28.154Z,84.02
2023-02-07T12:14:04.087Z,81.46
2023-02-07T12:16:42.488Z,83.29
2023-02-07T12:19:20.497Z,85.10
2023-02-07T12:22:01.579Z,87.57
2023-02-07T12:24:38.342Z,84.43
2023-02-07T12:27:15.913Z,81.84
2023-02-07T12:29:59.377Z,89.75
2023-02-07T12:32:45.781Z,81.53
2023-02-07T12:35:26.029Z,84.01
2023-02-07T12:38:06.306Z,76.24
2023-02-07T12:40:43.877Z,68.71
2023-02-07T12:43:22.313Z,62.47
2023-02-07T12:46:15.366Z,59.46
2023-02-07T12:49:09.540Z,56.26
2023-02-07T12:51:53.691Z,57.39
2023-02-07T12:54:44.008Z,52.50
2023-02-07T12:57:25.211Z,54.75
2023-02-07T13:00:06.216Z,54.55
2023-02-07T13:02:58.907Z,56.79
2023-02-07T13:05:56.124Z,51.17
2023-02-07T13:08:38.555Z,51.64
2023-02-07T13:11:27.536Z,55.58
2023-02-07T13:14:13.355Z,52.69
2023-02-07T13:16:55.217Z,53.69
2023-02-07T13:19:35.857Z,49.97
2023-02-07T13:22:15.522Z,56.50
2023-02-07T13:24:47.417Z,52.17
2023-02-07T13:27:22.664Z,53.15
2023-02-07T13:29:53.248Z,51.30
2023-02-07T13:32:25.467Z,52.84
2023-02-07T13:35:01.653Z,50.46
2023-02-07T13:37:46.361Z,47.15
2023-02-07T13:40:34.298Z,48.44
2023-02-07T13:43:14.238Z,53.80
2023-02-07T13:45:56.654Z,49.40
2023-02-07T13:48:36.481Z,50.10
2023-02-07T13:51:19.193Z,47.31
2023-02-07T13:54:01.815Z,46.35
2023-02-07T13:57:04.985Z,48.92
2023-02-07T13:59:40.049Z,51.75
2023-02-07T14:02:20.186Z,50.53
2023-02-07T14:04:53.978Z,50.38
2023-02-07T14:07:29.866Z,50.78
2023-02-07T14:09:59.491Z,46.62
2023-02-07T14:12:33.013Z,45.13
2023-02-07T14:15:53.444Z,46.44
2023-02-07T14:18:52.602Z,48.09
2023-02-07T14:21:31.914Z,48.36
2023-02-07T14:24:22.664Z,47.35
2023-02-07T14:27:04.895Z,52.27
2023-02-07T14:30:24.829Z,50.72
2023-02-07T14:33:15.568Z,53.17
2023-02-07T14:36:05.307Z,50.89
2023-02-07T14:38:41.082Z,47.97
2023-02-07T14:41:15.187Z,50.33
2023-02-07T14:44:03.337Z,51.11
2023-02-07T14:46:42.159Z,48.83
2023-02-07T14:49:22.568Z,52.24
2023-02-07T14:51:55.744Z,49.59
2023-02-07T14:54:31.477Z,49.22
2023-02-07T14:57:17.998Z,51.58
2023-02-07T15:00:00.648Z,50.21
2023-02-07T15:02:40.559Z,49.01
2023-02-07T15:05:24.467Z,53.31
2023-02-07T15:08:08.465Z,53.43
2023-02-07T15:10:42.063Z,48.60
2023-02-07T15:13:23.782Z,53.53
2023-02-07T15:15:57.876Z,50.40
2023-02-07T15:18:34.210Z,49.60
2023-02-07T15:21:05.101Z,51.59
2023-02-07T15:23:34.455Z,52.13
2023-02-07T15:26:09.419Z,50.30
2023-02-07T15:28:38.001Z,52.73
2023-02-07T15:31:14.073Z,49.84
2023-02-07T15:33:52.338Z,51.06
2023-02-07T15:36:47.845Z,51.21
2023-02-07T15:39:21.255Z,51.36
2023-02-07T15:41:52.097Z,52.06
2023-02-07T15:44:23.875Z,54.52
2023-02-07T15:46:55.800Z,53.96
2023-02-07T15:49:32.980Z,53.32
2023-02-07T15:52:15.496Z,53.64
2023-02-07T15:54:50.146Z,54.87
2023-02-07T15:57:27.192Z,54.87
2023-02-07T16:00:02.455Z,53.79
2023-02-07T16:02:47.549Z,56.15
2023-02-07T16:05:28.086Z,53.25
2023-02-07T16:08:02.153Z,56.28
2023-02-07T16:10:38.420Z,60.68
2023-02-07T16:13:19.717Z,61.20
2023-02-07T16:15:58.738Z,59.67
2023-02-07T16:18:39.453Z,60.13
2023-02-07T16:21:15.007Z,59.57
2023-02-07T16:23:46.509Z,61.55
2023-02-07T16:26:18.243Z,63.29
2023-02-07T16:28:48.017Z,66.46
2023-02-07T16:31:20.373Z,66.75
2023-02-07T16:33:48.836Z,67.02
2023-02-07T16:36:19.561Z,66.53
2023-02-07T16:38:49.576Z,66.38
2023-02-07T16:41:31.707Z,67.77
2023-02-07T16:44:02.362Z,68.64
2023-02-07T16:46:30.738Z,70.50
2023-02-07T16:48:59.066Z,69.22
2023-02-07T16:51:27.451Z,69.38
2023-02-07T16:53:57.490Z,69.32
2023-02-07T16:56:29.466Z,68.97
2023-02-07T16:58:58.323Z,74.39
2023-02-07T17:01:26.752Z,68.64
2023-02-07T17:03:55.411Z,70.52
2023-02-07T17:06:25.378Z,69.78
2023-02-07T17:08:56.602Z,72.35
2023-02-07T17:11:27.570Z,72.68
2023-02-07T17:13:58.549Z,74.06
2023-02-07T17:16:28.901Z,79.32
2023-02-07T17:18:57.361Z,80.52
2023-02-07T17:21:25.756Z,79.79
2023-02-07T17:23:54.325Z,81.55
2023-02-07T17:26:28.294Z,80.84
2023-02-07T17:28:57.205Z,77.51
2023-02-07T17:31:26.792Z,75.84
2023-02-07T17:33:56.612Z,75.21
2023-02-07T17:36:25.283Z,76.70
2023-02-07T17:38:55.707Z,77.81
2023-02-07T17:41:25.195Z,77.60
2023-02-07T17:43:55.393Z,80.66
2023-02-07T17:46:26.692Z,79.29
2023-02-07T17:48:56.412Z,81.20
2023-02-07T17:51:27.639Z,83.06
2023-02-07T17:53:57.014Z,77.88
2023-02-07T17:56:28.003Z,74.58
2023-02-07T17:59:00.872Z,74.60
2023-02-07T18:01:29.605Z,76.52
2023-02-07T18:03:59.109Z,75.81
2023-02-07T18:06:30.349Z,79.52
2023-02-07T18:08:59.683Z,78.64
2023-02-07T18:11:29.069Z,77.15
2023-02-07T18:13:59.118Z,77.10
2023-02-07T18:16:28.189Z,77.38
2023-02-07T18:18:57.984Z,78.84
2023-02-07T18:21:27.746Z,79.20
2023-02-07T18:23:56.701Z,82.49
2023-02-07T18:26:25.053Z,87.38
2023-02-07T18:28:53.996Z,87.61
2023-02-07T18:31:26.436Z,89.23
2023-02-07T18:33:56.063Z,91.01
2023-02-07T18:36:26.858Z,93.12
2023-02-07T18:38:58.233Z,95.21
2023-02-07T18:41:27.421Z,100.00
2023-02-07T18:43:56.111Z,100.00
2023-02-07T18:46:25.863Z,100.00
2023-02-07T18:48:56.908Z,100.00
2023-02-07T18:51:26.348Z,100.00
2023-02-07T18:53:55.368Z,100.00
2023-02-07T18:56:26.641Z,100.00
2023-02-07T18:58:56.825Z,100.00
2023-02-07T19:01:30.366Z,100.00
2023-02-07T19:04:01.693Z,100.00
2023-02-07T19:06:33.377Z,100.00
2023-02-07T19:09:01.981Z,100.00
2023-02-07T19:11:31.193Z,100.00
2023-02-07T19:13:59.500Z,100.00
2023-02-07T19:16:29.832Z,100.00
2023-02-07T19:19:01.953Z,100.00
2023-02-07T19:21:30.635Z,100.00
2023-02-07T19:23:59.907Z,100.00
2023-02-07T19:26:28.262Z,100.00
2023-02-07T19:28:58.950Z,100.00
2023-02-07T19:31:30.346Z,100.00
2023-02-07T19:34:00.536Z,100.00
2023-02-07T19:36:30.325Z,100.00
2023-02-07T19:38:59.680Z,100.00
2023-02-07T19:41:30.293Z,100.00
2023-02-07T19:43:58.868Z,100.00
2023-02-07T19:46:28.757Z,100.00
2023-02-07T19:48:57.149Z,100.00
2023-02-07T19:51:28.628Z,100.00
2023-02-07T19:53:57.779Z,100.00
2023-02-07T19:56:29.042Z,100.00
2023-02-07T19:58:57.748Z,100.00
2023-02-07T20:01:28.090Z,100.00
2023-02-07T20:03:58.478Z,100.00
2023-02-07T20:06:32.902Z,100.00
2023-02-07T20:09:04.198Z,100.00
2023-02-07T20:11:33.165Z,100.00
2023-02-07T20:14:04.017Z,100.00
2023-02-07T20:16:38.750Z,100.00
2023-02-07T20:19:08.768Z,100.00
2023-02-07T20:21:38.682Z,100.00
2023-02-07T20:24:08.230Z,100.00
2023-02-07T20:26:40.276Z,100.00
2023-02-07T20:29:13.171Z,100.00
2023-02-07T20:31:44.991Z,100.00
2023-02-07T20:34:13.961Z,100.00
2023-02-07T20:36:43.725Z,100.00
2023-02-07T20:39:15.858Z,100.00
2023-02-07T20:41:46.889Z,100.00
2023-02-07T20:44:18.955Z,100.00
2023-02-07T20:46:51.403Z,100.00
2023-02-07T20:49:22.506Z,100.00
2023-02-07T20:51:52.592Z,100.00
2023-02-07T20:54:24.376Z,100.00
2023-02-07T20:56:54.174Z,100.00
2023-02-07T20:59:25.891Z,100.00
2023-02-07T21:01:56.286Z,100.00
2023-02-07T21:04:26.083Z,100.00
2023-02-07T21:06:55.050Z,100.00
2023-02-07T21:09:24.341Z,100.00
2023-02-07T21:11:54.862Z,100.00
2023-02-07T21:14:26.731Z,100.00
2023-02-07T21:17:01.309Z,100.00
2023-02-07T21:19:30.305Z,100.00
2023-02-07T21:21:59.039Z,100.00
2023-02-07T21:24:27.874Z,100.00
2023-02-07T21:26:58.155Z,100.00
2023-02-07T21:29:31.077Z,100.00
2023-02-07T21:32:01.146Z,100.00
2023-02-07T21:34:30.126Z,100.00
2023-02-07T21:36:59.707Z,100.00
2023-02-07T21:39:31.611Z,100.00
2023-02-07T21:42:00.360Z,100.00
2023-02-07T21:44:29.375Z,100.00
2023-02-07T21:46:57.764Z,100.00
2023-02-07T21:49:27.516Z,100.00
2023-02-07T21:51:56.495Z,100.00
2023-02-07T21:54:25.221Z,100.00
2023-02-07T21:56:53.616Z,100.00
2023-02-07T21:59:23.574Z,100.00
2023-02-07T22:01:52.904Z,100.00
2023-02-07T22:04:22.079Z,100.00
2023-02-07T22:06:51.979Z,100.00
2023-02-07T22:09:23.513Z,100.00
2023-02-07T22:11:52.266Z,100.00
2023-02-07T22:14:21.332Z,100.00
2023-02-07T22:16:53.049Z,100.00
2023-02-07T22:19:22.798Z,100.00
2023-02-07T22:21:52.933Z,100.00
2023-02-07T22:24:22.112Z,100.00
2023-02-07T22:26:50.504Z,100.00
2023-02-07T22:29:18.918Z,100.00
2023-02-07T22:31:47.788Z,100.00
2023-02-07T22:34:16.969Z,100.00
2023-02-07T22:36:47.262Z,100.00
2023-02-07T22:39:19.212Z,100.00
2023-02-07T22:41:47.929Z,100.00
2023-02-07T22:44:16.373Z,100.00
2023-02-07T22:46:45.069Z,100.00
2023-02-07T22:49:13.627Z,100.00
2023-02-07T22:51:42.605Z,100.00
2023-02-07T22:54:18.619Z,100.00
2023-02-07T22:56:47.410Z,100.00
2023-02-07T22:59:15.930Z,100.00
2023-02-07T23:01:45.562Z,100.00
2023-02-07T23:04:17.684Z,100.00
2023-02-07T23:06:47.541Z,100.00
2023-02-07T23:09:17.329Z,100.00
2023-02-07T23:11:47.026Z,100.00
2023-02-07T23:14:16.454Z,100.00
2023-02-07T23:16:45.078Z,100.00
2023-02-07T23:19:16.157Z,100.00
2023-02-07T23:21:45.249Z,100.00
2023-02-07T23:24:13.692Z,100.00
2023-02-07T23:26:43.396Z,100.00
2023-02-07T23:29:12.233Z,100.00
2023-02-07T23:31:41.271Z,100.00
2023-02-07T23:34:10.534Z,100.00
2023-02-07T23:36:40.201Z,100.00
2023-02-07T23:39:09.085Z,100.00
2023-02-07T23:41:39.496Z,100.00
2023-02-07T23:44:09.505Z,100.00
2023-02-07T23:46:38.556Z,100.00
2023-02-07T23:49:07.591Z,100.00
2023-02-07T23:51:36.058Z,100.00
2023-02-07T23:54:04.994Z,100.00
2023-02-07T23:56:33.856Z,100.00
2023-02-07T23:59:02.252Z,100.00
